sensor_id;sensor_type;location;lat;lon;timestamp;temperature;humidity
9730;DHT22;4904;49.152;11.004;2022-07-19T00:02:06;19.60;99.90
9730;DHT22;4904;49.152;11.004;2022-07-19T00:04:34;19.70;99.90
9730;DHT22;4904;49.152;11.004;2022-07-19T00:07:01;19.80;99.90
9730;DHT22;4904;49.152;11.004;2022-07-19T00:09:29;19.70;99.90
9730;DHT22;4904;49.152;11.004;2022-07-19T00:11:56;19.40;99.90
9730;DHT22;4904;49.152;11.004;2022-07-19T00:14:23;19.20;99.90
9730;DHT22;4904;49.152;11.004;2022-07-19T00:16:52;19.30;99.90
9730;DHT22;4904;49.152;11.004;2022-07-19T00:19:19;19.40;99.90
9730;DHT22;4904;49.152;11.004;2022-07-19T00:21:46;19.60;99.90
9730;DHT22;4904;49.152;11.004;2022-07-19T00:24:13;19.70;99.90
9730;DHT22;4904;49.152;11.004;2022-07-19T00:26:40;19.70;99.90
9730;DHT22;4904;49.152;11.004;2022-07-19T00:29:06;19.70;99.90
9730;DHT22;4904;49.152;11.004;2022-07-19T00:31:33;19.60;99.90
9730;DHT22;4904;49.152;11.004;2022-07-19T00:34:02;19.50;99.90
9730;DHT22;4904;49.152;11.004;2022-07-19T00:36:29;19.50;99.90
9730;DHT22;4904;49.152;11.004;2022-07-19T00:38:56;19.40;99.90
9730;DHT22;4904;49.152;11.004;2022-07-19T00:41:23;19.30;99.90
9730;DHT22;4904;49.152;11.004;2022-07-19T00:43:49;19.20;99.90
9730;DHT22;4904;49.152;11.004;2022-07-19T00:46:20;19.10;99.90
9730;DHT22;4904;49.152;11.004;2022-07-19T00:48:48;18.80;99.90
9730;DHT22;4904;49.152;11.004;2022-07-19T00:51:17;18.50;99.90
9730;DHT22;4904;49.152;11.004;2022-07-19T00:53:45;18.30;99.90
9730;DHT22;4904;49.152;11.004;2022-07-19T00:56:14;18.20;99.90
9730;DHT22;4904;49.152;11.004;2022-07-19T00:58:41;18.00;99.90
9730;DHT22;4904;49.152;11.004;2022-07-19T01:01:09;18.00;99.90
9730;DHT22;4904;49.152;11.004;2022-07-19T01:03:38;18.00;99.90
9730;DHT22;4904;49.152;11.004;2022-07-19T01:06:06;18.00;99.90
9730;DHT22;4904;49.152;11.004;2022-07-19T01:08:36;17.90;99.90
9730;DHT22;4904;49.152;11.004;2022-07-19T01:11:04;18.10;99.90
9730;DHT22;4904;49.152;11.004;2022-07-19T01:13:31;18.30;99.90
9730;DHT22;4904;49.152;11.004;2022-07-19T01:15:58;18.20;99.90
9730;DHT22;4904;49.152;11.004;2022-07-19T01:18:26;18.20;99.90
9730;DHT22;4904;49.152;11.004;2022-07-19T01:20:53;18.30;99.90
9730;DHT22;4904;49.152;11.004;2022-07-19T01:23:21;18.50;99.90
9730;DHT22;4904;49.152;11.004;2022-07-19T01:25:48;18.60;99.90
9730;DHT22;4904;49.152;11.004;2022-07-19T01:28:15;18.60;99.90
9730;DHT22;4904;49.152;11.004;2022-07-19T01:30:42;18.60;99.90
9730;DHT22;4904;49.152;11.004;2022-07-19T01:33:09;18.60;99.90
9730;DHT22;4904;49.152;11.004;2022-07-19T01:35:36;18.60;99.90
9730;DHT22;4904;49.152;11.004;2022-07-19T01:38:03;18.70;99.90
9730;DHT22;4904;49.152;11.004;2022-07-19T01:40:31;18.70;99.90
9730;DHT22;4904;49.152;11.004;2022-07-19T01:42:58;18.60;99.90
9730;DHT22;4904;49.152;11.004;2022-07-19T01:45:25;18.60;99.90
9730;DHT22;4904;49.152;11.004;2022-07-19T01:47:52;18.50;99.90
9730;DHT22;4904;49.152;11.004;2022-07-19T01:50:19;18.30;99.90
9730;DHT22;4904;49.152;11.004;2022-07-19T01:52:46;18.00;99.90
9730;DHT22;4904;49.152;11.004;2022-07-19T01:55:13;17.80;99.90
9730;DHT22;4904;49.152;11.004;2022-07-19T01:57:41;17.70;99.90
9730;DHT22;4904;49.152;11.004;2022-07-19T02:00:10;17.40;99.90
9730;DHT22;4904;49.152;11.004;2022-07-19T02:02:37;17.20;99.90
9730;DHT22;4904;49.152;11.004;2022-07-19T02:05:04;17.20;99.90
9730;DHT22;4904;49.152;11.004;2022-07-19T02:07:31;17.20;99.90
9730;DHT22;4904;49.152;11.004;2022-07-19T02:09:58;17.50;99.90
9730;DHT22;4904;49.152;11.004;2022-07-19T02:12:25;17.70;99.90
9730;DHT22;4904;49.152;11.004;2022-07-19T02:14:53;17.70;99.90
9730;DHT22;4904;49.152;11.004;2022-07-19T02:17:20;17.80;99.90
9730;DHT22;4904;49.152;11.004;2022-07-19T02:19:47;17.90;99.90
9730;DHT22;4904;49.152;11.004;2022-07-19T02:22:14;17.90;99.90
9730;DHT22;4904;49.152;11.004;2022-07-19T02:24:41;17.70;99.90
9730;DHT22;4904;49.152;11.004;2022-07-19T02:27:09;17.60;99.90
9730;DHT22;4904;49.152;11.004;2022-07-19T02:29:36;17.60;99.90
9730;DHT22;4904;49.152;11.004;2022-07-19T02:32:06;17.60;99.90
9730;DHT22;4904;49.152;11.004;2022-07-19T02:34:33;17.50;99.90
9730;DHT22;4904;49.152;11.004;2022-07-19T02:37:00;17.40;99.90
9730;DHT22;4904;49.152;11.004;2022-07-19T02:39:27;17.20;99.90
9730;DHT22;4904;49.152;11.004;2022-07-19T02:41:54;16.70;99.90
9730;DHT22;4904;49.152;11.004;2022-07-19T02:44:21;16.40;99.90
9730;DHT22;4904;49.152;11.004;2022-07-19T02:46:48;16.40;99.90
9730;DHT22;4904;49.152;11.004;2022-07-19T02:49:16;16.50;99.90
9730;DHT22;4904;49.152;11.004;2022-07-19T02:51:43;16.80;99.90
9730;DHT22;4904;49.152;11.004;2022-07-19T02:54:10;17.00;99.90
9730;DHT22;4904;49.152;11.004;2022-07-19T02:56:37;17.10;99.90
9730;DHT22;4904;49.152;11.004;2022-07-19T02:59:04;17.10;99.90
9730;DHT22;4904;49.152;11.004;2022-07-19T03:01:32;17.10;99.90
9730;DHT22;4904;49.152;11.004;2022-07-19T03:03:59;16.90;99.90
9730;DHT22;4904;49.152;11.004;2022-07-19T03:06:27;16.80;99.90
9730;DHT22;4904;49.152;11.004;2022-07-19T03:08:54;16.60;99.90
9730;DHT22;4904;49.152;11.004;2022-07-19T03:11:21;16.40;99.90
9730;DHT22;4904;49.152;11.004;2022-07-19T03:13:48;16.10;99.90
9730;DHT22;4904;49.152;11.004;2022-07-19T03:16:15;16.00;99.90
9730;DHT22;4904;49.152;11.004;2022-07-19T03:18:42;16.30;99.90
9730;DHT22;4904;49.152;11.004;2022-07-19T03:21:09;16.50;99.90
9730;DHT22;4904;49.152;11.004;2022-07-19T03:23:38;16.60;99.90
9730;DHT22;4904;49.152;11.004;2022-07-19T03:26:05;16.70;99.90
9730;DHT22;4904;49.152;11.004;2022-07-19T03:28:33;16.80;99.90
9730;DHT22;4904;49.152;11.004;2022-07-19T03:31:00;16.80;99.90
9730;DHT22;4904;49.152;11.004;2022-07-19T03:33:27;16.80;99.90
9730;DHT22;4904;49.152;11.004;2022-07-19T03:35:54;16.80;99.90
9730;DHT22;4904;49.152;11.004;2022-07-19T03:38:21;16.70;99.90
9730;DHT22;4904;49.152;11.004;2022-07-19T03:40:49;16.70;99.90
9730;DHT22;4904;49.152;11.004;2022-07-19T03:43:17;16.60;99.90
9730;DHT22;4904;49.152;11.004;2022-07-19T03:45:44;16.60;99.90
9730;DHT22;4904;49.152;11.004;2022-07-19T03:48:12;16.50;99.90
9730;DHT22;4904;49.152;11.004;2022-07-19T03:50:39;16.40;99.90
9730;DHT22;4904;49.152;11.004;2022-07-19T03:53:06;16.50;99.90
9730;DHT22;4904;49.152;11.004;2022-07-19T03:55:33;16.50;99.90
9730;DHT22;4904;49.152;11.004;2022-07-19T03:58:02;16.50;99.90
9730;DHT22;4904;49.152;11.004;2022-07-19T04:00:29;16.60;99.90
9730;DHT22;4904;49.152;11.004;2022-07-19T04:02:56;16.60;99.90
9730;DHT22;4904;49.152;11.004;2022-07-19T04:05:23;16.60;99.90
9730;DHT22;4904;49.152;11.004;2022-07-19T04:07:50;16.60;99.90
9730;DHT22;4904;49.152;11.004;2022-07-19T04:10:16;16.60;99.90
9730;DHT22;4904;49.152;11.004;2022-07-19T04:12:43;16.70;99.90
9730;DHT22;4904;49.152;11.004;2022-07-19T04:15:12;16.70;99.90
9730;DHT22;4904;49.152;11.004;2022-07-19T04:17:39;16.70;99.90
9730;DHT22;4904;49.152;11.004;2022-07-19T04:20:06;16.70;99.90
9730;DHT22;4904;49.152;11.004;2022-07-19T04:22:33;16.80;99.90
9730;DHT22;4904;49.152;11.004;2022-07-19T04:25:00;16.80;99.90
9730;DHT22;4904;49.152;11.004;2022-07-19T04:27:28;16.50;99.90
9730;DHT22;4904;49.152;11.004;2022-07-19T04:29:55;16.40;99.90
9730;DHT22;4904;49.152;11.004;2022-07-19T04:32:24;16.50;99.90
9730;DHT22;4904;49.152;11.004;2022-07-19T04:34:51;16.70;99.90
9730;DHT22;4904;49.152;11.004;2022-07-19T04:37:18;16.80;99.90
9730;DHT22;4904;49.152;11.004;2022-07-19T04:39:44;16.90;99.90
9730;DHT22;4904;49.152;11.004;2022-07-19T04:42:11;16.90;99.90
9730;DHT22;4904;49.152;11.004;2022-07-19T04:44:38;17.00;99.90
9730;DHT22;4904;49.152;11.004;2022-07-19T04:47:05;17.10;99.90
9730;DHT22;4904;49.152;11.004;2022-07-19T04:49:33;17.10;99.90
9730;DHT22;4904;49.152;11.004;2022-07-19T04:52:00;17.20;99.90
9730;DHT22;4904;49.152;11.004;2022-07-19T04:54:27;17.30;99.90
9730;DHT22;4904;49.152;11.004;2022-07-19T04:56:54;17.30;99.90
9730;DHT22;4904;49.152;11.004;2022-07-19T04:59:21;17.10;99.90
9730;DHT22;4904;49.152;11.004;2022-07-19T05:01:48;16.80;99.90
9730;DHT22;4904;49.152;11.004;2022-07-19T05:04:15;16.90;99.90
9730;DHT22;4904;49.152;11.004;2022-07-19T05:06:43;17.10;99.90
9730;DHT22;4904;49.152;11.004;2022-07-19T05:09:10;17.30;99.90
9730;DHT22;4904;49.152;11.004;2022-07-19T05:11:37;17.40;99.90
9730;DHT22;4904;49.152;11.004;2022-07-19T05:14:04;17.60;99.90
9730;DHT22;4904;49.152;11.004;2022-07-19T05:16:31;17.90;99.90
9730;DHT22;4904;49.152;11.004;2022-07-19T05:18:58;18.00;99.90
9730;DHT22;4904;49.152;11.004;2022-07-19T05:21:25;18.10;99.90
9730;DHT22;4904;49.152;11.004;2022-07-19T05:23:53;18.30;99.90
9730;DHT22;4904;49.152;11.004;2022-07-19T05:26:20;18.30;99.90
9730;DHT22;4904;49.152;11.004;2022-07-19T05:28:47;18.50;99.90
9730;DHT22;4904;49.152;11.004;2022-07-19T05:31:14;18.70;99.90
9730;DHT22;4904;49.152;11.004;2022-07-19T05:33:40;18.80;99.90
9730;DHT22;4904;49.152;11.004;2022-07-19T05:36:07;18.90;99.90
9730;DHT22;4904;49.152;11.004;2022-07-19T05:38:36;19.10;99.90
9730;DHT22;4904;49.152;11.004;2022-07-19T05:41:06;19.30;99.90
9730;DHT22;4904;49.152;11.004;2022-07-19T05:43:34;19.40;99.90
9730;DHT22;4904;49.152;11.004;2022-07-19T05:46:02;19.50;99.90
9730;DHT22;4904;49.152;11.004;2022-07-19T05:48:29;19.60;99.90
9730;DHT22;4904;49.152;11.004;2022-07-19T05:50:57;19.70;99.90
9730;DHT22;4904;49.152;11.004;2022-07-19T05:53:24;19.90;99.90
9730;DHT22;4904;49.152;11.004;2022-07-19T05:55:51;20.10;99.90
9730;DHT22;4904;49.152;11.004;2022-07-19T05:58:19;20.30;99.90
9730;DHT22;4904;49.152;11.004;2022-07-19T06:00:48;20.50;99.90
9730;DHT22;4904;49.152;11.004;2022-07-19T06:03:32;20.60;99.90
9730;DHT22;4904;49.152;11.004;2022-07-19T06:05:59;20.80;99.90
9730;DHT22;4904;49.152;11.004;2022-07-19T06:08:26;21.00;99.90
9730;DHT22;4904;49.152;11.004;2022-07-19T06:10:53;21.10;99.90
9730;DHT22;4904;49.152;11.004;2022-07-19T06:13:21;21.30;99.90
9730;DHT22;4904;49.152;11.004;2022-07-19T06:15:48;21.50;99.90
9730;DHT22;4904;49.152;11.004;2022-07-19T06:18:16;21.70;99.90
9730;DHT22;4904;49.152;11.004;2022-07-19T06:20:43;21.90;99.90
9730;DHT22;4904;49.152;11.004;2022-07-19T06:23:10;22.00;99.90
9730;DHT22;4904;49.152;11.004;2022-07-19T06:25:37;22.30;99.90
9730;DHT22;4904;49.152;11.004;2022-07-19T06:28:04;22.40;99.90
9730;DHT22;4904;49.152;11.004;2022-07-19T06:30:33;22.60;99.90
9730;DHT22;4904;49.152;11.004;2022-07-19T06:33:00;22.80;99.90
9730;DHT22;4904;49.152;11.004;2022-07-19T06:35:26;22.90;99.90
9730;DHT22;4904;49.152;11.004;2022-07-19T06:37:53;23.10;99.90
9730;DHT22;4904;49.152;11.004;2022-07-19T06:40:20;23.30;99.90
9730;DHT22;4904;49.152;11.004;2022-07-19T06:42:47;23.40;99.90
9730;DHT22;4904;49.152;11.004;2022-07-19T06:45:14;23.60;99.90
9730;DHT22;4904;49.152;11.004;2022-07-19T06:47:43;23.70;99.90
9730;DHT22;4904;49.152;11.004;2022-07-19T06:50:10;23.80;99.90
9730;DHT22;4904;49.152;11.004;2022-07-19T06:52:37;24.00;99.90
9730;DHT22;4904;49.152;11.004;2022-07-19T06:55:05;24.10;99.90
9730;DHT22;4904;49.152;11.004;2022-07-19T06:57:32;24.30;99.90
9730;DHT22;4904;49.152;11.004;2022-07-19T06:59:59;24.50;99.90
9730;DHT22;4904;49.152;11.004;2022-07-19T07:02:26;24.60;99.90
9730;DHT22;4904;49.152;11.004;2022-07-19T07:04:54;24.80;99.90
9730;DHT22;4904;49.152;11.004;2022-07-19T07:07:21;25.00;99.90
9730;DHT22;4904;49.152;11.004;2022-07-19T07:09:48;25.10;99.90
9730;DHT22;4904;49.152;11.004;2022-07-19T07:12:15;25.30;99.90
9730;DHT22;4904;49.152;11.004;2022-07-19T07:14:42;25.40;99.90
9730;DHT22;4904;49.152;11.004;2022-07-19T07:17:08;25.50;99.90
9730;DHT22;4904;49.152;11.004;2022-07-19T07:19:35;25.70;99.90
9730;DHT22;4904;49.152;11.004;2022-07-19T07:22:04;25.90;99.90
9730;DHT22;4904;49.152;11.004;2022-07-19T07:24:31;26.00;99.90
9730;DHT22;4904;49.152;11.004;2022-07-19T07:26:58;26.20;99.90
9730;DHT22;4904;49.152;11.004;2022-07-19T07:29:25;26.30;99.90
9730;DHT22;4904;49.152;11.004;2022-07-19T07:31:52;26.50;99.90
9730;DHT22;4904;49.152;11.004;2022-07-19T07:34:19;26.60;99.90
9730;DHT22;4904;49.152;11.004;2022-07-19T07:36:45;26.70;99.90
9730;DHT22;4904;49.152;11.004;2022-07-19T07:39:14;26.80;99.90
9730;DHT22;4904;49.152;11.004;2022-07-19T07:41:41;27.00;99.90
9730;DHT22;4904;49.152;11.004;2022-07-19T07:44:08;27.10;99.90
9730;DHT22;4904;49.152;11.004;2022-07-19T07:46:35;27.20;99.90
9730;DHT22;4904;49.152;11.004;2022-07-19T07:49:03;27.40;99.90
9730;DHT22;4904;49.152;11.004;2022-07-19T07:51:30;27.70;99.90
9730;DHT22;4904;49.152;11.004;2022-07-19T07:53:58;27.70;99.90
9730;DHT22;4904;49.152;11.004;2022-07-19T07:56:26;27.80;99.90
9730;DHT22;4904;49.152;11.004;2022-07-19T07:58:53;28.00;99.90
9730;DHT22;4904;49.152;11.004;2022-07-19T08:01:20;28.10;99.90
9730;DHT22;4904;49.152;11.004;2022-07-19T08:03:47;28.20;99.90
9730;DHT22;4904;49.152;11.004;2022-07-19T08:06:14;28.30;99.90
9730;DHT22;4904;49.152;11.004;2022-07-19T08:08:41;28.40;99.90
9730;DHT22;4904;49.152;11.004;2022-07-19T08:11:08;28.50;99.90
9730;DHT22;4904;49.152;11.004;2022-07-19T08:13:37;28.60;99.90
9730;DHT22;4904;49.152;11.004;2022-07-19T08:16:04;28.60;99.90
9730;DHT22;4904;49.152;11.004;2022-07-19T08:18:31;28.60;99.90
9730;DHT22;4904;49.152;11.004;2022-07-19T08:20:58;28.70;99.90
9730;DHT22;4904;49.152;11.004;2022-07-19T08:23:25;28.70;99.90
9730;DHT22;4904;49.152;11.004;2022-07-19T08:25:52;28.80;99.90
9730;DHT22;4904;49.152;11.004;2022-07-19T08:28:19;28.80;99.90
9730;DHT22;4904;49.152;11.004;2022-07-19T08:30:48;28.90;99.90
9730;DHT22;4904;49.152;11.004;2022-07-19T08:33:14;28.90;99.90
9730;DHT22;4904;49.152;11.004;2022-07-19T08:35:41;29.00;99.50
9730;DHT22;4904;49.152;11.004;2022-07-19T08:38:08;29.00;99.60
9730;DHT22;4904;49.152;11.004;2022-07-19T08:40:36;29.20;99.90
9730;DHT22;4904;49.152;11.004;2022-07-19T08:43:05;29.40;99.70
9730;DHT22;4904;49.152;11.004;2022-07-19T08:45:33;29.50;99.10
9730;DHT22;4904;49.152;11.004;2022-07-19T08:48:04;29.50;98.50
9730;DHT22;4904;49.152;11.004;2022-07-19T08:50:33;29.40;98.40
9730;DHT22;4904;49.152;11.004;2022-07-19T08:53:00;29.30;98.50
9730;DHT22;4904;49.152;11.004;2022-07-19T08:55:28;29.40;99.20
9730;DHT22;4904;49.152;11.004;2022-07-19T08:57:55;29.50;98.90
9730;DHT22;4904;49.152;11.004;2022-07-19T09:00:24;29.70;98.00
9730;DHT22;4904;49.152;11.004;2022-07-19T09:02:53;29.80;97.90
9730;DHT22;4904;49.152;11.004;2022-07-19T09:05:22;29.90;98.20
9730;DHT22;4904;49.152;11.004;2022-07-19T09:08:01;29.90;97.50
9730;DHT22;4904;49.152;11.004;2022-07-19T09:10:29;30.00;97.50
9730;DHT22;4904;49.152;11.004;2022-07-19T09:13:01;30.10;96.40
9730;DHT22;4904;49.152;11.004;2022-07-19T09:15:43;30.10;96.80
9730;DHT22;4904;49.152;11.004;2022-07-19T09:18:13;30.20;96.80
9730;DHT22;4904;49.152;11.004;2022-07-19T09:20:42;30.30;97.70
9730;DHT22;4904;49.152;11.004;2022-07-19T09:23:09;30.60;97.10
9730;DHT22;4904;49.152;11.004;2022-07-19T09:25:38;30.80;96.40
9730;DHT22;4904;49.152;11.004;2022-07-19T09:28:06;30.80;95.80
9730;DHT22;4904;49.152;11.004;2022-07-19T09:30:38;30.90;95.70
9730;DHT22;4904;49.152;11.004;2022-07-19T09:33:10;30.80;95.40
9730;DHT22;4904;49.152;11.004;2022-07-19T09:35:39;30.80;96.10
9730;DHT22;4904;49.152;11.004;2022-07-19T09:38:25;31.00;95.90
9730;DHT22;4904;49.152;11.004;2022-07-19T09:40:54;31.10;95.20
9730;DHT22;4904;49.152;11.004;2022-07-19T09:43:21;31.10;95.10
9730;DHT22;4904;49.152;11.004;2022-07-19T09:45:51;31.20;95.90
9730;DHT22;4904;49.152;11.004;2022-07-19T09:48:18;31.30;94.90
9730;DHT22;4904;49.152;11.004;2022-07-19T09:50:46;31.30;94.50
9730;DHT22;4904;49.152;11.004;2022-07-19T09:53:15;31.10;94.40
9730;DHT22;4904;49.152;11.004;2022-07-19T09:55:45;31.00;95.00
9730;DHT22;4904;49.152;11.004;2022-07-19T09:58:12;31.20;95.30
9730;DHT22;4904;49.152;11.004;2022-07-19T10:00:40;31.50;95.20
9730;DHT22;4904;49.152;11.004;2022-07-19T10:03:09;31.70;95.20
9730;DHT22;4904;49.152;11.004;2022-07-19T10:05:37;31.80;93.90
9730;DHT22;4904;49.152;11.004;2022-07-19T10:08:05;31.90;94.20
9730;DHT22;4904;49.152;11.004;2022-07-19T10:10:33;31.90;93.90
9730;DHT22;4904;49.152;11.004;2022-07-19T10:13:01;32.10;94.20
9730;DHT22;4904;49.152;11.004;2022-07-19T10:15:34;32.30;93.80
9730;DHT22;4904;49.152;11.004;2022-07-19T10:18:09;32.30;92.80
9730;DHT22;4904;49.152;11.004;2022-07-19T10:20:38;32.30;92.40
9730;DHT22;4904;49.152;11.004;2022-07-19T10:23:06;32.10;93.40
9730;DHT22;4904;49.152;11.004;2022-07-19T10:25:42;32.30;92.70
9730;DHT22;4904;49.152;11.004;2022-07-19T10:28:30;32.30;93.20
9730;DHT22;4904;49.152;11.004;2022-07-19T10:30:58;32.40;92.20
9730;DHT22;4904;49.152;11.004;2022-07-19T10:33:30;32.40;91.80
9730;DHT22;4904;49.152;11.004;2022-07-19T10:35:59;32.40;92.50
9730;DHT22;4904;49.152;11.004;2022-07-19T10:39:19;32.40;92.00
9730;DHT22;4904;49.152;11.004;2022-07-19T10:42:05;32.50;91.40
9730;DHT22;4904;49.152;11.004;2022-07-19T10:44:34;32.70;91.90
9730;DHT22;4904;49.152;11.004;2022-07-19T10:47:01;32.80;91.50
9730;DHT22;4904;49.152;11.004;2022-07-19T10:49:44;32.90;92.10
9730;DHT22;4904;49.152;11.004;2022-07-19T10:52:33;33.00;90.50
9730;DHT22;4904;49.152;11.004;2022-07-19T10:55:24;32.90;91.00
9730;DHT22;4904;49.152;11.004;2022-07-19T10:58:07;32.80;91.20
9730;DHT22;4904;49.152;11.004;2022-07-19T11:00:43;32.80;91.60
9730;DHT22;4904;49.152;11.004;2022-07-19T11:03:29;32.80;90.90
9730;DHT22;4904;49.152;11.004;2022-07-19T11:05:57;32.70;90.00
9730;DHT22;4904;49.152;11.004;2022-07-19T11:08:32;32.80;90.90
9730;DHT22;4904;49.152;11.004;2022-07-19T11:11:05;32.90;89.50
9730;DHT22;4904;49.152;11.004;2022-07-19T11:13:32;32.80;90.70
9730;DHT22;4904;49.152;11.004;2022-07-19T11:16:01;32.80;89.30
9730;DHT22;4904;49.152;11.004;2022-07-19T11:18:29;31.80;90.50
9730;DHT22;4904;49.152;11.004;2022-07-19T11:20:57;32.10;91.00
9730;DHT22;4904;49.152;11.004;2022-07-19T11:23:24;32.50;91.10
9730;DHT22;4904;49.152;11.004;2022-07-19T11:26:05;32.70;90.00
9730;DHT22;4904;49.152;11.004;2022-07-19T11:28:32;32.80;90.40
9730;DHT22;4904;49.152;11.004;2022-07-19T11:31:00;32.70;89.90
9730;DHT22;4904;49.152;11.004;2022-07-19T11:33:27;32.60;89.50
9730;DHT22;4904;49.152;11.004;2022-07-19T11:35:55;32.30;89.50
9730;DHT22;4904;49.152;11.004;2022-07-19T11:38:22;32.30;90.50
9730;DHT22;4904;49.152;11.004;2022-07-19T11:40:49;32.50;90.00
9730;DHT22;4904;49.152;11.004;2022-07-19T11:43:16;32.60;90.00
9730;DHT22;4904;49.152;11.004;2022-07-19T11:45:46;32.80;89.10
9730;DHT22;4904;49.152;11.004;2022-07-19T11:48:23;32.90;89.10
9730;DHT22;4904;49.152;11.004;2022-07-19T11:50:57;33.00;89.20
9730;DHT22;4904;49.152;11.004;2022-07-19T11:53:24;33.10;90.20
9730;DHT22;4904;49.152;11.004;2022-07-19T11:55:51;33.20;89.60
9730;DHT22;4904;49.152;11.004;2022-07-19T11:58:18;33.30;88.70
9730;DHT22;4904;49.152;11.004;2022-07-19T12:00:45;33.50;89.50
9730;DHT22;4904;49.152;11.004;2022-07-19T12:03:16;33.70;88.40
9730;DHT22;4904;49.152;11.004;2022-07-19T12:05:57;33.80;87.50
9730;DHT22;4904;49.152;11.004;2022-07-19T12:08:35;33.60;87.20
9730;DHT22;4904;49.152;11.004;2022-07-19T12:11:15;33.10;88.40
9730;DHT22;4904;49.152;11.004;2022-07-19T12:13:42;33.20;88.90
9730;DHT22;4904;49.152;11.004;2022-07-19T12:16:11;33.30;88.50
9730;DHT22;4904;49.152;11.004;2022-07-19T12:18:45;33.50;89.20
9730;DHT22;4904;49.152;11.004;2022-07-19T12:21:17;33.60;89.00
9730;DHT22;4904;49.152;11.004;2022-07-19T12:24:09;33.60;88.40
9730;DHT22;4904;49.152;11.004;2022-07-19T12:26:36;33.80;89.20
9730;DHT22;4904;49.152;11.004;2022-07-19T12:29:16;33.90;88.60
9730;DHT22;4904;49.152;11.004;2022-07-19T12:31:44;34.00;88.60
9730;DHT22;4904;49.152;11.004;2022-07-19T12:34:13;34.10;88.30
9730;DHT22;4904;49.152;11.004;2022-07-19T12:36:40;33.60;87.60
9730;DHT22;4904;49.152;11.004;2022-07-19T12:39:17;33.30;89.40
9730;DHT22;4904;49.152;11.004;2022-07-19T12:41:53;33.30;89.40
9730;DHT22;4904;49.152;11.004;2022-07-19T12:44:20;33.70;90.00
9730;DHT22;4904;49.152;11.004;2022-07-19T12:46:47;33.90;88.20
9730;DHT22;4904;49.152;11.004;2022-07-19T12:49:15;34.10;88.50
9730;DHT22;4904;49.152;11.004;2022-07-19T12:51:42;34.30;87.80
9730;DHT22;4904;49.152;11.004;2022-07-19T12:54:10;34.50;86.90
9730;DHT22;4904;49.152;11.004;2022-07-19T12:56:37;34.60;87.00
9730;DHT22;4904;49.152;11.004;2022-07-19T12:59:04;34.70;87.30
9730;DHT22;4904;49.152;11.004;2022-07-19T13:01:49;34.70;85.00
9730;DHT22;4904;49.152;11.004;2022-07-19T13:04:17;33.80;85.80
9730;DHT22;4904;49.152;11.004;2022-07-19T13:06:44;33.30;86.40
9730;DHT22;4904;49.152;11.004;2022-07-19T13:09:11;33.40;87.90
9730;DHT22;4904;49.152;11.004;2022-07-19T13:11:38;33.60;86.10
9730;DHT22;4904;49.152;11.004;2022-07-19T13:14:05;33.80;86.80
9730;DHT22;4904;49.152;11.004;2022-07-19T13:16:32;33.90;85.00
9730;DHT22;4904;49.152;11.004;2022-07-19T13:18:59;34.10;86.70
9730;DHT22;4904;49.152;11.004;2022-07-19T13:21:28;34.40;84.70
9730;DHT22;4904;49.152;11.004;2022-07-19T13:23:55;34.60;85.10
9730;DHT22;4904;49.152;11.004;2022-07-19T13:26:22;34.70;84.80
9730;DHT22;4904;49.152;11.004;2022-07-19T13:28:48;34.80;85.60
9730;DHT22;4904;49.152;11.004;2022-07-19T13:31:15;34.70;85.80
9730;DHT22;4904;49.152;11.004;2022-07-19T13:33:42;34.80;85.10
9730;DHT22;4904;49.152;11.004;2022-07-19T13:36:10;35.00;84.50
9730;DHT22;4904;49.152;11.004;2022-07-19T13:38:38;35.00;84.30
9730;DHT22;4904;49.152;11.004;2022-07-19T13:41:07;35.00;84.70
9730;DHT22;4904;49.152;11.004;2022-07-19T13:43:34;34.90;84.10
9730;DHT22;4904;49.152;11.004;2022-07-19T13:46:01;34.90;85.00
9730;DHT22;4904;49.152;11.004;2022-07-19T13:48:28;34.20;83.90
9730;DHT22;4904;49.152;11.004;2022-07-19T13:50:55;34.20;84.60
9730;DHT22;4904;49.152;11.004;2022-07-19T13:53:22;34.50;84.50
9730;DHT22;4904;49.152;11.004;2022-07-19T13:55:51;34.80;85.10
9730;DHT22;4904;49.152;11.004;2022-07-19T13:58:18;34.90;84.20
9730;DHT22;4904;49.152;11.004;2022-07-19T14:00:45;35.00;84.70
9730;DHT22;4904;49.152;11.004;2022-07-19T14:03:13;35.10;83.60
9730;DHT22;4904;49.152;11.004;2022-07-19T14:05:43;35.10;84.30
9730;DHT22;4904;49.152;11.004;2022-07-19T14:08:10;35.20;83.30
9730;DHT22;4904;49.152;11.004;2022-07-19T14:10:38;35.20;82.30
9730;DHT22;4904;49.152;11.004;2022-07-19T14:13:07;35.30;82.40
9730;DHT22;4904;49.152;11.004;2022-07-19T14:15:34;35.40;81.60
9730;DHT22;4904;49.152;11.004;2022-07-19T14:18:02;35.50;82.20
9730;DHT22;4904;49.152;11.004;2022-07-19T14:20:28;35.40;81.60
9730;DHT22;4904;49.152;11.004;2022-07-19T14:22:55;35.50;81.20
9730;DHT22;4904;49.152;11.004;2022-07-19T14:25:23;35.40;82.50
9730;DHT22;4904;49.152;11.004;2022-07-19T14:27:50;35.30;81.60
9730;DHT22;4904;49.152;11.004;2022-07-19T14:30:18;35.30;80.50
9730;DHT22;4904;49.152;11.004;2022-07-19T14:32:45;35.40;81.00
9730;DHT22;4904;49.152;11.004;2022-07-19T14:35:12;35.50;80.70
9730;DHT22;4904;49.152;11.004;2022-07-19T14:37:42;35.60;80.90
9730;DHT22;4904;49.152;11.004;2022-07-19T14:40:10;35.70;80.50
9730;DHT22;4904;49.152;11.004;2022-07-19T14:42:37;35.80;81.70
9730;DHT22;4904;49.152;11.004;2022-07-19T14:45:04;35.70;80.70
9730;DHT22;4904;49.152;11.004;2022-07-19T14:47:33;35.60;80.60
9730;DHT22;4904;49.152;11.004;2022-07-19T14:50:00;35.50;79.90
9730;DHT22;4904;49.152;11.004;2022-07-19T14:52:27;35.40;79.50
9730;DHT22;4904;49.152;11.004;2022-07-19T14:54:54;35.30;78.90
9730;DHT22;4904;49.152;11.004;2022-07-19T14:57:22;35.30;79.10
9730;DHT22;4904;49.152;11.004;2022-07-19T14:59:50;35.20;78.20
9730;DHT22;4904;49.152;11.004;2022-07-19T15:02:17;34.80;78.00
9730;DHT22;4904;49.152;11.004;2022-07-19T15:04:46;34.70;79.80
9730;DHT22;4904;49.152;11.004;2022-07-19T15:07:13;34.90;79.50
9730;DHT22;4904;49.152;11.004;2022-07-19T15:09:40;35.00;80.80
9730;DHT22;4904;49.152;11.004;2022-07-19T15:12:07;35.20;80.20
9730;DHT22;4904;49.152;11.004;2022-07-19T15:14:34;35.20;79.70
9730;DHT22;4904;49.152;11.004;2022-07-19T15:17:03;35.10;79.00
9730;DHT22;4904;49.152;11.004;2022-07-19T15:19:30;35.10;78.10
9730;DHT22;4904;49.152;11.004;2022-07-19T15:21:58;35.20;78.10
9730;DHT22;4904;49.152;11.004;2022-07-19T15:24:26;34.60;79.30
9730;DHT22;4904;49.152;11.004;2022-07-19T15:26:53;34.20;78.90
9730;DHT22;4904;49.152;11.004;2022-07-19T15:29:20;34.40;79.90
9730;DHT22;4904;49.152;11.004;2022-07-19T15:31:47;34.60;79.90
9730;DHT22;4904;49.152;11.004;2022-07-19T15:34:14;34.80;79.70
9730;DHT22;4904;49.152;11.004;2022-07-19T15:36:41;35.00;80.10
9730;DHT22;4904;49.152;11.004;2022-07-19T15:39:10;34.60;78.70
9730;DHT22;4904;49.152;11.004;2022-07-19T15:41:37;34.20;78.80
9730;DHT22;4904;49.152;11.004;2022-07-19T15:44:04;34.00;79.20
9730;DHT22;4904;49.152;11.004;2022-07-19T15:46:31;34.00;79.50
9730;DHT22;4904;49.152;11.004;2022-07-19T15:48:59;34.00;80.30
9730;DHT22;4904;49.152;11.004;2022-07-19T15:51:27;33.90;79.60
9730;DHT22;4904;49.152;11.004;2022-07-19T15:53:55;34.00;80.50